sensor_id;sensor_type;location;lat;lon;timestamp;pressure;altitude;pressure_sealevel;temperature;humidity
79703;BME280;69172;52.352;5.006;2023-09-18T00:00:25;100657.19;;;18.24;100.00
79703;BME280;69172;52.352;5.006;2023-09-18T00:02:51;100648.56;;;18.25;100.00
79703;BME280;69172;52.352;5.006;2023-09-18T00:05:16;100650.25;;;18.23;100.00
79703;BME280;69172;52.352;5.006;2023-09-18T00:07:42;100642.47;;;18.25;100.00
79703;BME280;69172;52.352;5.006;2023-09-18T00:10:10;100628.56;;;18.24;100.00
79703;BME280;69172;52.352;5.006;2023-09-18T00:12:38;100625.13;;;18.27;100.00
79703;BME280;69172;52.352;5.006;2023-09-18T00:15:04;100613.88;;;18.28;100.00
79703;BME280;69172;52.352;5.006;2023-09-18T00:17:30;100597.47;;;18.32;100.00
79703;BME280;69172;52.352;5.006;2023-09-18T00:19:56;100601.84;;;18.33;100.00
79703;BME280;69172;52.352;5.006;2023-09-18T00:22:22;100592.38;;;18.36;100.00
79703;BME280;69172;52.352;5.006;2023-09-18T00:24:49;100591.50;;;18.37;100.00
79703;BME280;69172;52.352;5.006;2023-09-18T00:27:15;100591.56;;;18.40;100.00
79703;BME280;69172;52.352;5.006;2023-09-18T00:29:41;100583.81;;;18.42;100.00
79703;BME280;69172;52.352;5.006;2023-09-18T00:32:07;100579.63;;;18.49;100.00
79703;BME280;69172;52.352;5.006;2023-09-18T00:34:33;100574.47;;;18.52;100.00
79703;BME280;69172;52.352;5.006;2023-09-18T00:36:58;100573.53;;;18.48;100.00
79703;BME280;69172;52.352;5.006;2023-09-18T00:39:27;100580.56;;;18.52;100.00
79703;BME280;69172;52.352;5.006;2023-09-18T00:41:52;100571.91;;;18.53;100.00
79703;BME280;69172;52.352;5.006;2023-09-18T00:44:25;100564.94;;;18.54;100.00
79703;BME280;69172;52.352;5.006;2023-09-18T00:46:53;100561.50;;;18.53;100.00
79703;BME280;69172;52.352;5.006;2023-09-18T00:49:22;100558.03;;;18.54;100.00
79703;BME280;69172;52.352;5.006;2023-09-18T00:51:48;100562.34;;;18.54;100.00
79703;BME280;69172;52.352;5.006;2023-09-18T00:54:16;100543.25;;;18.53;100.00
79703;BME280;69172;52.352;5.006;2023-09-18T00:56:46;100538.13;;;18.59;100.00
79703;BME280;69172;52.352;5.006;2023-09-18T00:59:13;100531.22;;;18.60;100.00
79703;BME280;69172;52.352;5.006;2023-09-18T01:01:41;100519.06;;;18.60;100.00
79703;BME280;69172;52.352;5.006;2023-09-18T01:04:08;100512.13;;;18.61;100.00
79703;BME280;69172;52.352;5.006;2023-09-18T01:06:34;100506.94;;;18.62;100.00
79703;BME280;69172;52.352;5.006;2023-09-18T01:09:02;100494.84;;;18.64;100.00
79703;BME280;69172;52.352;5.006;2023-09-18T01:11:36;100486.97;;;18.63;100.00
79703;BME280;69172;52.352;5.006;2023-09-18T01:14:17;100482.66;;;18.65;100.00
79703;BME280;69172;52.352;5.006;2023-09-18T01:16:49;100474.03;;;18.66;100.00
79703;BME280;69172;52.352;5.006;2023-09-18T01:19:16;100480.13;;;18.66;100.00
79703;BME280;69172;52.352;5.006;2023-09-18T01:21:50;100474.03;;;18.66;100.00
79703;BME280;69172;52.352;5.006;2023-09-18T01:24:17;100476.63;;;18.67;100.00
79703;BME280;69172;52.352;5.006;2023-09-18T01:26:42;100466.25;;;18.69;100.00
79703;BME280;69172;52.352;5.006;2023-09-18T01:29:07;100453.25;;;18.70;100.00
79703;BME280;69172;52.352;5.006;2023-09-18T01:31:33;100450.63;;;18.70;100.00
79703;BME280;69172;52.352;5.006;2023-09-18T01:33:58;100445.47;;;18.73;100.00
79703;BME280;69172;52.352;5.006;2023-09-18T01:36:25;100444.69;;;18.77;100.00
79703;BME280;69172;52.352;5.006;2023-09-18T01:38:51;100434.28;;;18.77;100.00
79703;BME280;69172;52.352;5.006;2023-09-18T01:41:17;100439.50;;;18.77;100.00
79703;BME280;69172;52.352;5.006;2023-09-18T01:43:43;100441.22;;;18.77;100.00
79703;BME280;69172;52.352;5.006;2023-09-18T01:46:09;100439.50;;;18.77;100.00
79703;BME280;69172;52.352;5.006;2023-09-18T01:48:34;100434.28;;;18.79;100.00
79703;BME280;69172;52.352;5.006;2023-09-18T01:51:00;100433.44;;;18.80;100.00
79703;BME280;69172;52.352;5.006;2023-09-18T01:53:25;100438.66;;;18.81;100.00
79703;BME280;69172;52.352;5.006;2023-09-18T01:55:51;100434.38;;;18.85;100.00
79703;BME280;69172;52.352;5.006;2023-09-18T01:58:17;100425.69;;;18.83;100.00
79703;BME280;69172;52.352;5.006;2023-09-18T02:00:43;100430.97;;;18.89;100.00
79703;BME280;69172;52.352;5.006;2023-09-18T02:03:08;100421.41;;;18.89;100.00
79703;BME280;69172;52.352;5.006;2023-09-18T02:05:34;100421.47;;;18.92;100.00
79703;BME280;69172;52.352;5.006;2023-09-18T02:08:00;100407.59;;;18.93;100.00
79703;BME280;69172;52.352;5.006;2023-09-18T02:10:25;100414.53;;;18.91;100.00
79703;BME280;69172;52.352;5.006;2023-09-18T02:12:50;100429.22;;;18.88;100.00
79703;BME280;69172;52.352;5.006;2023-09-18T02:15:16;100426.63;;;18.88;100.00
79703;BME280;69172;52.352;5.006;2023-09-18T02:17:41;100431.78;;;18.86;100.00
79703;BME280;69172;52.352;5.006;2023-09-18T02:20:07;100434.41;;;18.86;100.00
79703;BME280;69172;52.352;5.006;2023-09-18T02:22:39;100428.28;;;18.84;100.00
79703;BME280;69172;52.352;5.006;2023-09-18T02:25:05;100440.50;;;18.87;100.00
79703;BME280;69172;52.352;5.006;2023-09-18T02:27:31;100439.66;;;18.89;100.00
79703;BME280;69172;52.352;5.006;2023-09-18T02:29:56;100427.50;;;18.90;100.00
79703;BME280;69172;52.352;5.006;2023-09-18T02:32:25;100427.50;;;18.90;100.00
79703;BME280;69172;52.352;5.006;2023-09-18T02:34:50;100431.94;;;18.94;100.00
79703;BME280;69172;52.352;5.006;2023-09-18T02:37:17;100425.84;;;18.93;100.00
79703;BME280;69172;52.352;5.006;2023-09-18T02:39:42;100413.75;;;18.98;100.00
79703;BME280;69172;52.352;5.006;2023-09-18T02:42:08;100414.84;;;19.13;100.00
79703;BME280;69172;52.352;5.006;2023-09-18T02:44:33;100413.06;;;19.10;100.00
79703;BME280;69172;52.352;5.006;2023-09-18T02:46:58;100406.88;;;19.02;100.00
79703;BME280;69172;52.352;5.006;2023-09-18T02:49:25;100404.13;;;18.94;100.00
79703;BME280;69172;52.352;5.006;2023-09-18T02:51:50;100395.38;;;18.89;100.00
79703;BME280;69172;52.352;5.006;2023-09-18T02:54:15;100381.44;;;18.87;100.00
79703;BME280;69172;52.352;5.006;2023-09-18T02:56:42;100365.91;;;18.93;100.00
79703;BME280;69172;52.352;5.006;2023-09-18T02:59:08;100361.47;;;18.88;100.00
79703;BME280;69172;52.352;5.006;2023-09-18T03:01:34;100361.38;;;18.83;100.00
79703;BME280;69172;52.352;5.006;2023-09-18T03:03:59;100358.81;;;18.85;100.00
79703;BME280;69172;52.352;5.006;2023-09-18T03:06:26;100352.72;;;18.84;100.00
79703;BME280;69172;52.352;5.006;2023-09-18T03:08:53;100339.69;;;18.83;100.00
79703;BME280;69172;52.352;5.006;2023-09-18T03:11:18;100325.75;;;18.81;100.00
79703;BME280;69172;52.352;5.006;2023-09-18T03:13:45;100321.38;;;18.77;100.00
79703;BME280;69172;52.352;5.006;2023-09-18T03:16:14;100324.94;;;18.85;100.00
79703;BME280;69172;52.352;5.006;2023-09-18T03:18:39;100305.78;;;18.80;100.00
79703;BME280;69172;52.352;5.006;2023-09-18T03:21:05;100288.38;;;18.77;100.00
79703;BME280;69172;52.352;5.006;2023-09-18T03:23:30;100284.00;;;18.75;100.00
79703;BME280;69172;52.352;5.006;2023-09-18T03:25:56;100296.16;;;18.74;100.00
79703;BME280;69172;52.352;5.006;2023-09-18T03:28:21;100290.03;;;18.72;100.00
79703;BME280;69172;52.352;5.006;2023-09-18T03:30:47;100294.41;;;18.75;100.00
79703;BME280;69172;52.352;5.006;2023-09-18T03:33:12;100291.13;;;18.88;100.00
79703;BME280;69172;52.352;5.006;2023-09-18T03:35:49;100293.78;;;18.91;100.00
79703;BME280;69172;52.352;5.006;2023-09-18T03:38:17;100290.25;;;18.87;100.00
79703;BME280;69172;52.352;5.006;2023-09-18T03:40:42;100283.25;;;18.85;100.00
79703;BME280;69172;52.352;5.006;2023-09-18T03:43:09;100280.63;;;18.82;100.00
79703;BME280;69172;52.352;5.006;2023-09-18T03:45:35;100285.78;;;18.77;100.00
79703;BME280;69172;52.352;5.006;2023-09-18T03:48:00;100283.03;;;18.70;100.00
79703;BME280;69172;52.352;5.006;2023-09-18T03:50:26;100294.47;;;18.81;100.00
79703;BME280;69172;52.352;5.006;2023-09-18T03:52:59;100295.31;;;18.78;100.00
79703;BME280;69172;52.352;5.006;2023-09-18T03:55:31;100291.88;;;18.78;100.00
79703;BME280;69172;52.352;5.006;2023-09-18T03:57:59;100283.22;;;18.83;100.00
79703;BME280;69172;52.352;5.006;2023-09-18T04:00:25;100274.50;;;18.81;100.00
79703;BME280;69172;52.352;5.006;2023-09-18T04:02:51;100272.78;;;18.82;100.00
79703;BME280;69172;52.352;5.006;2023-09-18T04:05:16;100272.00;;;18.86;100.00
79703;BME280;69172;52.352;5.006;2023-09-18T04:07:42;100265.91;;;18.85;100.00
79703;BME280;69172;52.352;5.006;2023-09-18T04:10:11;100259.81;;;18.85;100.00
79703;BME280;69172;52.352;5.006;2023-09-18T04:12:43;100265.81;;;18.81;100.00
79703;BME280;69172;52.352;5.006;2023-09-18T04:15:09;100264.88;;;18.76;100.00
79703;BME280;69172;52.352;5.006;2023-09-18T04:17:34;100267.50;;;18.76;100.00
79703;BME280;69172;52.352;5.006;2023-09-18T04:20:00;100279.63;;;18.74;100.00
79703;BME280;69172;52.352;5.006;2023-09-18T04:22:25;100292.69;;;18.77;100.00
79703;BME280;69172;52.352;5.006;2023-09-18T04:24:50;100294.38;;;18.73;100.00
79703;BME280;69172;52.352;5.006;2023-09-18T04:27:16;100297.03;;;18.75;100.00
79703;BME280;69172;52.352;5.006;2023-09-18T04:29:41;100303.06;;;18.74;100.00
79703;BME280;69172;52.352;5.006;2023-09-18T04:32:06;100303.09;;;18.75;100.00
79703;BME280;69172;52.352;5.006;2023-09-18T04:34:32;100311.84;;;18.79;100.00
79703;BME280;69172;52.352;5.006;2023-09-18T04:36:58;100302.19;;;18.72;100.00
79703;BME280;69172;52.352;5.006;2023-09-18T04:39:24;100278.66;;;18.64;100.00
79703;BME280;69172;52.352;5.006;2023-09-18T04:41:49;100335.06;;;18.64;100.00
79703;BME280;69172;52.352;5.006;2023-09-18T04:44:15;100324.66;;;18.65;100.00
79703;BME280;69172;52.352;5.006;2023-09-18T04:46:42;100274.22;;;18.60;100.00
79703;BME280;69172;52.352;5.006;2023-09-18T04:49:08;100260.31;;;18.60;100.00
79703;BME280;69172;52.352;5.006;2023-09-18T04:51:38;100255.13;;;18.60;100.00
79703;BME280;69172;52.352;5.006;2023-09-18T04:54:04;100241.16;;;18.55;100.00
79703;BME280;69172;52.352;5.006;2023-09-18T04:56:30;100226.38;;;18.51;100.00
79703;BME280;69172;52.352;5.006;2023-09-18T04:58:55;100225.47;;;18.50;100.00
79703;BME280;69172;52.352;5.006;2023-09-18T05:01:20;100208.09;;;18.49;100.00
79703;BME280;69172;52.352;5.006;2023-09-18T05:03:46;100206.28;;;18.45;100.00
79703;BME280;69172;52.352;5.006;2023-09-18T05:06:14;100188.06;;;18.45;100.00
79703;BME280;69172;52.352;5.006;2023-09-18T05:08:51;100184.47;;;18.38;100.00
79703;BME280;69172;52.352;5.006;2023-09-18T05:11:18;100198.38;;;18.40;100.00
79703;BME280;69172;52.352;5.006;2023-09-18T05:13:44;100194.09;;;18.44;100.00
79703;BME280;69172;52.352;5.006;2023-09-18T05:16:09;100188.84;;;18.39;100.00
79703;BME280;69172;52.352;5.006;2023-09-18T05:18:34;100186.13;;;18.32;100.00
79703;BME280;69172;52.352;5.006;2023-09-18T05:21:06;100200.91;;;18.34;100.00
79703;BME280;69172;52.352;5.006;2023-09-18T05:23:32;100206.94;;;18.32;100.00
79703;BME280;69172;52.352;5.006;2023-09-18T05:25:57;100205.22;;;18.31;100.00
79703;BME280;69172;52.352;5.006;2023-09-18T05:28:24;100206.16;;;18.36;100.00
79703;BME280;69172;52.352;5.006;2023-09-18T05:30:49;100211.31;;;18.34;100.00
79703;BME280;69172;52.352;5.006;2023-09-18T05:33:15;100219.13;;;18.33;100.00
79703;BME280;69172;52.352;5.006;2023-09-18T05:35:43;100218.22;;;18.31;100.00
79703;BME280;69172;52.352;5.006;2023-09-18T05:38:13;100211.25;;;18.28;100.00
79703;BME280;69172;52.352;5.006;2023-09-18T05:40:40;100219.81;;;18.21;100.00
79703;BME280;69172;52.352;5.006;2023-09-18T05:43:06;100238.06;;;18.24;100.00
79703;BME280;69172;52.352;5.006;2023-09-18T05:45:32;100236.34;;;18.26;100.00
79703;BME280;69172;52.352;5.006;2023-09-18T05:48:00;100236.34;;;18.25;100.00
79703;BME280;69172;52.352;5.006;2023-09-18T05:50:33;100250.34;;;18.31;100.00
79703;BME280;69172;52.352;5.006;2023-09-18T05:53:00;100254.69;;;18.32;100.00
79703;BME280;69172;52.352;5.006;2023-09-18T05:55:32;100254.72;;;18.35;100.00
79703;BME280;69172;52.352;5.006;2023-09-18T05:57:58;100255.63;;;18.37;100.00
79703;BME280;69172;52.352;5.006;2023-09-18T06:00:24;100250.41;;;18.37;100.00
79703;BME280;69172;52.352;5.006;2023-09-18T06:02:50;100255.72;;;18.42;100.00
79703;BME280;69172;52.352;5.006;2023-09-18T06:05:19;100260.09;;;18.46;100.00
79703;BME280;69172;52.352;5.006;2023-09-18T06:07:48;100239.34;;;18.48;100.00
79703;BME280;69172;52.352;5.006;2023-09-18T06:10:15;100245.38;;;18.48;100.00
79703;BME280;69172;52.352;5.006;2023-09-18T06:12:40;100253.25;;;18.50;100.00
79703;BME280;69172;52.352;5.006;2023-09-18T06:15:07;100249.84;;;18.55;100.00
79703;BME280;69172;52.352;5.006;2023-09-18T06:17:38;100253.38;;;18.59;100.00
79703;BME280;69172;52.352;5.006;2023-09-18T06:20:04;100244.78;;;18.64;100.00
79703;BME280;69172;52.352;5.006;2023-09-18T06:22:31;100245.69;;;18.68;100.00
79703;BME280;69172;52.352;5.006;2023-09-18T06:24:58;100249.16;;;18.68;100.00
79703;BME280;69172;52.352;5.006;2023-09-18T06:27:23;100248.22;;;18.65;100.00
79703;BME280;69172;52.352;5.006;2023-09-18T06:29:49;100242.19;;;18.67;100.00
79703;BME280;69172;52.352;5.006;2023-09-18T06:32:15;100246.50;;;18.65;100.00
79703;BME280;69172;52.352;5.006;2023-09-18T06:34:40;100245.63;;;18.65;100.00
79703;BME280;69172;52.352;5.006;2023-09-18T06:37:08;100244.78;;;18.67;100.00
79703;BME280;69172;52.352;5.006;2023-09-18T06:39:37;100236.97;;;18.64;100.00
79703;BME280;69172;52.352;5.006;2023-09-18T06:42:09;100244.75;;;18.63;100.00
79703;BME280;69172;52.352;5.006;2023-09-18T06:44:37;100237.84;;;18.66;100.00
79703;BME280;69172;52.352;5.006;2023-09-18T06:47:03;100232.56;;;18.62;100.00
79703;BME280;69172;52.352;5.006;2023-09-18T06:49:28;100233.44;;;18.61;100.00
79703;BME280;69172;52.352;5.006;2023-09-18T06:51:54;100230.84;;;18.61;100.00
79703;BME280;69172;52.352;5.006;2023-09-18T06:54:21;100222.97;;;18.58;100.00
79703;BME280;69172;52.352;5.006;2023-09-18T06:56:46;100218.69;;;18.63;100.00
79703;BME280;69172;52.352;5.006;2023-09-18T06:59:13;100221.34;;;18.67;100.00
79703;BME280;69172;52.352;5.006;2023-09-18T07:01:39;100219.63;;;18.66;100.00
79703;BME280;69172;52.352;5.006;2023-09-18T07:04:06;100231.75;;;18.64;100.00
79703;BME280;69172;52.352;5.006;2023-09-18T07:06:31;100228.31;;;18.67;100.00
79703;BME280;69172;52.352;5.006;2023-09-18T07:08:57;100235.28;;;18.69;100.00
79703;BME280;69172;52.352;5.006;2023-09-18T07:11:22;100223.13;;;18.68;100.00
79703;BME280;69172;52.352;5.006;2023-09-18T07:13:50;100219.81;;;18.80;100.00
79703;BME280;69172;52.352;5.006;2023-09-18T07:16:15;100215.47;;;18.83;100.00
79703;BME280;69172;52.352;5.006;2023-09-18T07:18:40;100205.97;;;18.85;100.00
79703;BME280;69172;52.352;5.006;2023-09-18T07:21:06;100209.47;;;18.86;100.00
79703;BME280;69172;52.352;5.006;2023-09-18T07:23:31;100203.34;;;18.84;100.00
79703;BME280;69172;52.352;5.006;2023-09-18T07:25:57;100207.75;;;18.89;100.00
79703;BME280;69172;52.352;5.006;2023-09-18T07:28:25;100206.91;;;18.90;100.00
79703;BME280;69172;52.352;5.006;2023-09-18T07:30:50;100198.22;;;18.91;100.00
79703;BME280;69172;52.352;5.006;2023-09-18T07:33:15;100205.28;;;19.01;100.00
79703;BME280;69172;52.352;5.006;2023-09-18T07:35:46;100197.47;;;19.03;100.00
79703;BME280;69172;52.352;5.006;2023-09-18T07:38:12;100202.72;;;19.05;100.00
79703;BME280;69172;52.352;5.006;2023-09-18T07:40:37;100205.38;;;19.09;100.00
79703;BME280;69172;52.352;5.006;2023-09-18T07:43:03;100195.88;;;19.13;100.00
79703;BME280;69172;52.352;5.006;2023-09-18T07:45:28;100202.00;;;19.18;100.00
79703;BME280;69172;52.352;5.006;2023-09-18T07:47:53;100216.03;;;19.30;100.00
79703;BME280;69172;52.352;5.006;2023-09-18T07:50:19;100217.72;;;19.25;100.00
79703;BME280;69172;52.352;5.006;2023-09-18T07:52:45;100216.06;;;19.33;100.00
79703;BME280;69172;52.352;5.006;2023-09-18T07:55:11;100230.00;;;19.37;100.00
79703;BME280;69172;52.352;5.006;2023-09-18T07:57:37;100244.84;;;19.41;100.00
79703;BME280;69172;52.352;5.006;2023-09-18T08:00:04;100237.03;;;19.39;100.00
79703;BME280;69172;52.352;5.006;2023-09-18T08:02:38;100239.72;;;19.45;100.00
79703;BME280;69172;52.352;5.006;2023-09-18T08:05:04;100244.94;;;19.45;100.00
79703;BME280;69172;52.352;5.006;2023-09-18T08:07:30;100246.66;;;19.45;100.00
79703;BME280;69172;52.352;5.006;2023-09-18T08:09:56;100247.50;;;19.44;100.00
79703;BME280;69172;52.352;5.006;2023-09-18T08:12:22;100253.59;;;19.46;100.00
79703;BME280;69172;52.352;5.006;2023-09-18T08:14:48;100255.31;;;19.42;100.00
79703;BME280;69172;52.352;5.006;2023-09-18T08:17:15;100263.91;;;19.37;100.00
79703;BME280;69172;52.352;5.006;2023-09-18T08:19:40;100265.72;;;19.41;100.00
79703;BME280;69172;52.352;5.006;2023-09-18T08:22:06;100267.44;;;19.39;100.00
79703;BME280;69172;52.352;5.006;2023-09-18T08:24:32;100255.28;;;19.39;100.00
79703;BME280;69172;52.352;5.006;2023-09-18T08:26:57;100261.28;;;19.35;100.00
79703;BME280;69172;52.352;5.006;2023-09-18T08:29:23;100263.00;;;19.33;100.00
79703;BME280;69172;52.352;5.006;2023-09-18T08:31:49;100266.53;;;19.37;100.00
79703;BME280;69172;52.352;5.006;2023-09-18T08:34:17;100268.22;;;19.32;100.00
79703;BME280;69172;52.352;5.006;2023-09-18T08:36:42;100259.53;;;19.34;100.00
79703;BME280;69172;52.352;5.006;2023-09-18T08:39:07;100263.94;;;19.38;100.00
79703;BME280;69172;52.352;5.006;2023-09-18T08:41:38;100256.16;;;19.40;100.00
79703;BME280;69172;52.352;5.006;2023-09-18T08:44:03;100263.16;;;19.44;100.00
79703;BME280;69172;52.352;5.006;2023-09-18T08:46:30;100261.50;;;19.52;100.00
79703;BME280;69172;52.352;5.006;2023-09-18T08:49:19;100270.28;;;19.58;100.00
79703;BME280;69172;52.352;5.006;2023-09-18T08:51:45;100261.63;;;19.64;100.00
79703;BME280;69172;52.352;5.006;2023-09-18T08:54:12;100264.16;;;19.58;100.00
79703;BME280;69172;52.352;5.006;2023-09-18T08:56:38;100269.38;;;19.59;100.00
79703;BME280;69172;52.352;5.006;2023-09-18T08:59:03;100265.16;;;19.69;100.00
79703;BME280;69172;52.352;5.006;2023-09-18T09:01:28;100272.19;;;19.79;100.00
79703;BME280;69172;52.352;5.006;2023-09-18T09:03:55;100274.94;;;19.93;100.00
79703;BME280;69172;52.352;5.006;2023-09-18T09:06:20;100274.22;;;20.10;100.00
79703;BME280;69172;52.352;5.006;2023-09-18T09:08:46;100280.50;;;20.31;100.00
79703;BME280;69172;52.352;5.006;2023-09-18T09:11:11;100280.56;;;20.40;100.00
79703;BME280;69172;52.352;5.006;2023-09-18T09:13:36;100281.50;;;20.49;98.67
79703;BME280;69172;52.352;5.006;2023-09-18T09:16:03;100283.22;;;20.44;98.85
79703;BME280;69172;52.352;5.006;2023-09-18T09:18:29;100301.41;;;20.31;97.99
79703;BME280;69172;52.352;5.006;2023-09-18T09:21:01;100286.56;;;20.25;100.00
79703;BME280;69172;52.352;5.006;2023-09-18T09:23:30;100310.94;;;20.24;97.84
79703;BME280;69172;52.352;5.006;2023-09-18T09:26:16;100305.63;;;20.19;100.00
79703;BME280;69172;52.352;5.006;2023-09-18T09:28:44;100307.53;;;20.34;97.93
79703;BME280;69172;52.352;5.006;2023-09-18T09:31:09;100314.31;;;20.17;99.26
79703;BME280;69172;52.352;5.006;2023-09-18T09:33:50;100310.84;;;20.18;99.53
79703;BME280;69172;52.352;5.006;2023-09-18T09:36:19;100314.28;;;20.11;98.09
79703;BME280;69172;52.352;5.006;2023-09-18T09:38:45;100317.63;;;20.01;97.28
79703;BME280;69172;52.352;5.006;2023-09-18T09:41:13;100327.22;;;20.03;97.85
79703;BME280;69172;52.352;5.006;2023-09-18T09:43:42;100318.69;;;20.18;97.26
79703;BME280;69172;52.352;5.006;2023-09-18T09:46:15;100331.03;;;20.33;95.59
79703;BME280;69172;52.352;5.006;2023-09-18T09:48:58;100322.41;;;20.43;93.04
79703;BME280;69172;52.352;5.006;2023-09-18T09:51:24;100322.50;;;20.58;89.75
79703;BME280;69172;52.352;5.006;2023-09-18T09:53:50;100333.63;;;20.30;89.20
79703;BME280;69172;52.352;5.006;2023-09-18T09:56:16;100324.03;;;20.27;88.58
79703;BME280;69172;52.352;5.006;2023-09-18T09:59:02;100330.13;;;20.29;86.07
79703;BME280;69172;52.352;5.006;2023-09-18T10:01:35;100332.09;;;20.59;85.28
79703;BME280;69172;52.352;5.006;2023-09-18T10:04:04;100327.81;;;20.71;81.27
79703;BME280;69172;52.352;5.006;2023-09-18T10:06:35;100325.38;;;21.02;80.53
79703;BME280;69172;52.352;5.006;2023-09-18T10:09:03;100326.47;;;21.35;79.07
79703;BME280;69172;52.352;5.006;2023-09-18T10:11:31;100320.41;;;21.49;79.25
79703;BME280;69172;52.352;5.006;2023-09-18T10:14:04;100316.03;;;21.58;78.88
79703;BME280;69172;52.352;5.006;2023-09-18T10:16:35;100311.66;;;21.53;77.21
79703;BME280;69172;52.352;5.006;2023-09-18T10:19:16;100309.91;;;21.43;77.93
79703;BME280;69172;52.352;5.006;2023-09-18T10:22:06;100315.19;;;21.64;77.30
79703;BME280;69172;52.352;5.006;2023-09-18T10:24:39;100310.84;;;21.60;77.83
79703;BME280;69172;52.352;5.006;2023-09-18T10:27:07;100315.06;;;21.24;74.99
79703;BME280;69172;52.352;5.006;2023-09-18T10:29:36;100296.63;;;21.00;74.72
79703;BME280;69172;52.352;5.006;2023-09-18T10:32:06;100297.59;;;21.17;75.84
79703;BME280;69172;52.352;5.006;2023-09-18T10:34:35;100288.91;;;21.17;76.40
79703;BME280;69172;52.352;5.006;2023-09-18T10:37:03;100308.84;;;21.03;73.74
79703;BME280;69172;52.352;5.006;2023-09-18T10:39:35;100321.13;;;21.13;72.70
79703;BME280;69172;52.352;5.006;2023-09-18T10:42:01;100304.53;;;21.12;74.04
79703;BME280;69172;52.352;5.006;2023-09-18T10:44:29;100315.91;;;21.14;74.33
79703;BME280;69172;52.352;5.006;2023-09-18T10:46:58;100307.25;;;21.27;75.32
79703;BME280;69172;52.352;5.006;2023-09-18T10:49:25;100305.50;;;21.29;73.75
79703;BME280;69172;52.352;5.006;2023-09-18T10:51:54;100315.09;;;21.30;74.63
79703;BME280;69172;52.352;5.006;2023-09-18T10:54:30;100308.09;;;21.26;74.56
79703;BME280;69172;52.352;5.006;2023-09-18T10:56:57;100308.13;;;21.37;74.17
79703;BME280;69172;52.352;5.006;2023-09-18T10:59:23;100313.38;;;21.40;75.05
79703;BME280;69172;52.352;5.006;2023-09-18T11:01:48;100318.66;;;21.61;75.41
79703;BME280;69172;52.352;5.006;2023-09-18T11:04:18;100315.22;;;21.70;75.31
79703;BME280;69172;52.352;5.006;2023-09-18T11:09:32;100311.75;;;21.84;73.98
79703;BME280;69172;52.352;5.006;2023-09-18T11:12:05;100313.38;;;21.40;74.81
79703;BME280;69172;52.352;5.006;2023-09-18T11:14:43;100303.00;;;21.73;73.94
79703;BME280;69172;52.352;5.006;2023-09-18T11:17:38;100315.19;;;21.55;73.62
79703;BME280;69172;52.352;5.006;2023-09-18T11:20:05;100310.06;;;21.89;73.79
79703;BME280;69172;52.352;5.006;2023-09-18T11:22:35;100306.56;;;22.06;71.34
79703;BME280;69172;52.352;5.006;2023-09-18T11:27:56;100312.69;;;22.32;70.39
79703;BME280;69172;52.352;5.006;2023-09-18T11:30:21;100308.31;;;22.08;70.86
79703;BME280;69172;52.352;5.006;2023-09-18T11:32:49;100303.84;;;21.62;70.75
79703;BME280;69172;52.352;5.006;2023-09-18T11:35:14;100302.13;;;21.80;70.29
79703;BME280;69172;52.352;5.006;2023-09-18T11:37:43;100305.59;;;21.60;69.85
79703;BME280;69172;52.352;5.006;2023-09-18T11:40:29;100312.56;;;21.55;70.90
79703;BME280;69172;52.352;5.006;2023-09-18T11:43:31;100307.41;;;21.88;69.31
79703;BME280;69172;52.352;5.006;2023-09-18T11:46:00;100308.31;;;22.10;68.29
79703;BME280;69172;52.352;5.006;2023-09-18T11:48:29;100301.28;;;21.86;68.62
79703;BME280;69172;52.352;5.006;2023-09-18T11:50:57;100297.81;;;21.96;68.27
79703;BME280;69172;52.352;5.006;2023-09-18T11:53:24;100300.47;;;22.17;66.50
79703;BME280;69172;52.352;5.006;2023-09-18T11:55:50;100296.09;;;22.21;65.52
79703;BME280;69172;52.352;5.006;2023-09-18T11:58:16;100300.47;;;21.98;66.67
79703;BME280;69172;52.352;5.006;2023-09-18T12:00:42;100299.56;;;22.05;67.30
79703;BME280;69172;52.352;5.006;2023-09-18T12:03:18;100304.81;;;22.15;67.67
79703;BME280;69172;52.352;5.006;2023-09-18T12:06:01;100303.94;;;22.04;66.63
79703;BME280;69172;52.352;5.006;2023-09-18T12:08:29;100306.56;;;21.92;65.26
79703;BME280;69172;52.352;5.006;2023-09-18T12:10:56;100299.56;;;21.86;66.21
79703;BME280;69172;52.352;5.006;2023-09-18T12:13:24;100296.09;;;22.18;66.13
79703;BME280;69172;52.352;5.006;2023-09-18T12:15:56;100294.31;;;22.39;67.28
79703;BME280;69172;52.352;5.006;2023-09-18T12:18:22;100301.34;;;22.30;66.86
79703;BME280;69172;52.352;5.006;2023-09-18T12:20:50;100285.63;;;22.00;68.48
79703;BME280;69172;52.352;5.006;2023-09-18T12:23:17;100289.97;;;22.13;69.80
79703;BME280;69172;52.352;5.006;2023-09-18T12:25:48;100280.38;;;22.16;67.77
79703;BME280;69172;52.352;5.006;2023-09-18T12:28:15;100298.66;;;21.86;69.12
79703;BME280;69172;52.352;5.006;2023-09-18T12:30:42;100297.00;;;22.12;69.01
79703;BME280;69172;52.352;5.006;2023-09-18T12:33:08;100280.38;;;22.56;68.34
79703;BME280;69172;52.352;5.006;2023-09-18T12:35:34;100279.44;;;22.87;66.41
79703;BME280;69172;52.352;5.006;2023-09-18T12:38:00;100289.81;;;23.16;64.74
79703;BME280;69172;52.352;5.006;2023-09-18T12:40:30;100292.50;;;23.03;64.16
79703;BME280;69172;52.352;5.006;2023-09-18T12:42:58;100277.66;;;22.93;64.75
79703;BME280;69172;52.352;5.006;2023-09-18T12:45:26;100275.88;;;23.03;65.22
79703;BME280;69172;52.352;5.006;2023-09-18T12:47:54;100268.84;;;23.11;65.95
79703;BME280;69172;52.352;5.006;2023-09-18T12:50:20;100261.09;;;22.85;66.26